createdAt,value
2017-07-27T00:00:56.068Z,29.70
2017-07-27T00:03:25.575Z,29.60
2017-07-27T00:05:54.841Z,29.60
2017-07-27T00:08:24.380Z,29.50
2017-07-27T00:10:53.701Z,29.50
2017-07-27T00:13:23.172Z,29.50
2017-07-27T00:15:52.686Z,29.50
2017-07-27T00:18:22.217Z,29.50
2017-07-27T00:20:51.419Z,29.40
2017-07-27T00:23:20.836Z,29.60
2017-07-27T00:25:50.422Z,29.70
2017-07-27T00:28:19.856Z,29.70
2017-07-27T00:30:49.045Z,29.70
2017-07-27T00:33:18.505Z,29.80
2017-07-27T00:35:48.038Z,29.80
2017-07-27T00:38:17.479Z,29.80
2017-07-27T00:40:46.897Z,29.70
2017-07-27T00:43:16.025Z,29.70
2017-07-27T00:45:45.227Z,29.60
2017-07-27T00:48:16.255Z,29.40
2017-07-27T00:50:45.702Z,29.40
2017-07-27T00:53:15.007Z,29.50
2017-07-27T00:55:44.705Z,29.40
2017-07-27T00:58:14.275Z,29.30
2017-07-27T01:00:43.618Z,29.10
2017-07-27T01:03:13.277Z,29.20
2017-07-27T01:05:42.430Z,29.30
2017-07-27T01:08:11.612Z,29.30
2017-07-27T01:10:41.250Z,29.10
2017-07-27T01:13:10.720Z,29.10
2017-07-27T01:15:40.026Z,29.30
2017-07-27T01:18:09.823Z,29.20
2017-07-27T01:20:39.435Z,29.10
2017-07-27T01:23:09.060Z,29.10
2017-07-27T01:25:38.560Z,29.00
2017-07-27T01:28:07.933Z,29.00
2017-07-27T01:30:37.731Z,28.90
2017-07-27T01:33:08.764Z,28.80
2017-07-27T01:35:38.422Z,28.80
2017-07-27T01:38:07.842Z,28.70
2017-07-27T01:40:37.412Z,28.70
2017-07-27T01:43:06.708Z,28.60
2017-07-27T01:45:35.994Z,28.50
2017-07-27T01:48:06.343Z,28.30
2017-07-27T01:50:36.544Z,28.20
2017-07-27T01:53:05.882Z,28.30
2017-07-27T01:55:35.275Z,28.20
2017-07-27T01:58:04.818Z,28.20
2017-07-27T02:00:34.039Z,28.10
2017-07-27T02:03:03.721Z,28.10
2017-07-27T02:05:33.126Z,28.20
2017-07-27T02:08:02.478Z,28.20
2017-07-27T02:10:32.077Z,28.20
2017-07-27T02:13:01.476Z,28.10
2017-07-27T02:15:30.951Z,28.00
2017-07-27T02:18:00.231Z,27.90
2017-07-27T02:20:29.742Z,27.60
2017-07-27T02:22:59.143Z,27.50
2017-07-27T02:25:28.445Z,27.40
2017-07-27T02:27:57.986Z,27.30
2017-07-27T02:30:27.637Z,27.20
2017-07-27T02:32:57.034Z,27.20
2017-07-27T02:35:26.397Z,27.20
2017-07-27T02:37:58.948Z,27.20
2017-07-27T02:40:28.287Z,27.10
2017-07-27T02:42:57.631Z,27.00
2017-07-27T02:45:26.728Z,26.90
2017-07-27T02:47:56.259Z,26.90
2017-07-27T02:50:25.924Z,26.80
2017-07-27T02:52:56.350Z,26.70
2017-07-27T02:55:25.807Z,26.50
2017-07-27T02:57:56.712Z,26.50
2017-07-27T03:00:26.044Z,26.40
2017-07-27T03:02:55.627Z,26.40
2017-07-27T03:05:24.992Z,26.20
2017-07-27T03:07:54.416Z,26.10
2017-07-27T03:10:24.018Z,26.00
2017-07-27T03:12:53.701Z,25.90
2017-07-27T03:15:24.293Z,25.70
2017-07-27T03:17:53.540Z,25.70
2017-07-27T03:20:22.684Z,25.60
2017-07-27T03:22:52.032Z,25.60
2017-07-27T03:25:21.651Z,25.50
2017-07-27T03:27:51.493Z,25.30
2017-07-27T03:30:20.724Z,25.20
2017-07-27T03:32:49.938Z,25.10
2017-07-27T03:35:19.521Z,25.00
2017-07-27T03:37:49.035Z,24.90
2017-07-27T03:40:18.549Z,24.80
2017-07-27T03:42:47.720Z,24.60
2017-07-27T03:45:17.422Z,24.60
2017-07-27T03:47:46.769Z,24.50
2017-07-27T03:50:18.031Z,24.30
2017-07-27T03:52:47.521Z,24.30
2017-07-27T03:55:18.575Z,24.00
2017-07-27T03:57:47.834Z,24.00
2017-07-27T04:00:17.445Z,24.00
2017-07-27T04:02:46.947Z,23.90
2017-07-27T04:05:16.565Z,23.80
2017-07-27T04:07:45.907Z,23.70
2017-07-27T04:10:15.332Z,23.60
2017-07-27T04:12:44.868Z,23.50
2017-07-27T04:15:14.415Z,23.40
2017-07-27T04:17:43.580Z,23.20
2017-07-27T04:20:13.110Z,23.10
2017-07-27T04:22:42.728Z,22.90
2017-07-27T04:25:12.295Z,22.80
2017-07-27T04:27:42.029Z,22.70
2017-07-27T04:30:12.321Z,22.50
2017-07-27T04:32:41.801Z,22.40
2017-07-27T04:35:11.323Z,22.40
2017-07-27T04:37:41.045Z,22.40
2017-07-27T04:40:10.716Z,22.30
2017-07-27T04:42:40.340Z,22.20
2017-07-27T04:45:09.698Z,22.20
2017-07-27T04:47:38.994Z,22.10
2017-07-27T04:50:08.718Z,22.00
2017-07-27T04:52:38.284Z,21.80
2017-07-27T04:55:07.891Z,21.70
2017-07-27T04:57:48.699Z,21.60
2017-07-27T05:00:18.883Z,21.50
2017-07-27T05:02:48.498Z,21.50
2017-07-27T05:05:19.352Z,21.50
2017-07-27T05:07:49.966Z,21.40
2017-07-27T05:10:19.367Z,21.40
2017-07-27T05:12:48.860Z,21.30
2017-07-27T05:15:18.428Z,21.20
2017-07-27T05:17:47.869Z,21.10
2017-07-27T05:20:17.194Z,21.00
2017-07-27T05:22:52.382Z,21.00
2017-07-27T05:25:22.038Z,20.80
2017-07-27T05:27:51.271Z,20.70
2017-07-27T05:30:42.785Z,20.70
2017-07-27T05:33:11.967Z,20.60
2017-07-27T05:35:41.544Z,20.50
2017-07-27T05:38:12.182Z,20.40
2017-07-27T05:40:44.003Z,20.40
2017-07-27T05:43:13.147Z,20.30
2017-07-27T05:45:42.329Z,20.20
2017-07-27T05:48:11.503Z,20.10
2017-07-27T05:50:40.922Z,20.00
2017-07-27T05:53:10.215Z,20.00
2017-07-27T05:55:39.275Z,20.00
2017-07-27T05:58:09.881Z,20.00
2017-07-27T06:00:39.399Z,20.00
2017-07-27T06:03:09.074Z,19.90
2017-07-27T06:05:38.688Z,19.90
2017-07-27T06:08:07.972Z,19.80
2017-07-27T06:10:37.611Z,19.80
2017-07-27T06:13:07.114Z,19.70
2017-07-27T06:15:36.483Z,19.70
2017-07-27T06:18:07.558Z,19.60
2017-07-27T06:20:36.969Z,19.50
2017-07-27T06:23:06.168Z,19.40
2017-07-27T06:25:35.877Z,19.30
2017-07-27T06:28:05.224Z,19.20
2017-07-27T06:30:34.657Z,19.20
2017-07-27T06:33:04.497Z,19.10
2017-07-27T06:35:33.877Z,19.10
2017-07-27T06:38:03.204Z,19.00
2017-07-27T06:40:32.527Z,18.90
2017-07-27T06:43:07.352Z,18.90
2017-07-27T06:45:36.663Z,18.90
2017-07-27T06:48:06.382Z,18.90
2017-07-27T06:50:36.077Z,18.90
2017-07-27T06:53:05.165Z,18.80
2017-07-27T06:55:34.958Z,18.80
2017-07-27T06:58:05.564Z,18.60
2017-07-27T07:00:36.415Z,18.60
2017-07-27T07:03:05.492Z,18.60
2017-07-27T07:05:34.844Z,18.50
2017-07-27T07:08:04.201Z,18.50
2017-07-27T07:10:33.503Z,18.50
2017-07-27T07:13:03.756Z,18.50
2017-07-27T07:15:34.033Z,18.30
2017-07-27T07:18:03.326Z,18.30
2017-07-27T07:20:33.354Z,18.30
2017-07-27T07:23:02.862Z,18.20
2017-07-27T07:25:32.181Z,18.10
2017-07-27T07:28:01.703Z,18.10
2017-07-27T07:30:31.901Z,18.10
2017-07-27T07:33:01.099Z,18.10
2017-07-27T07:35:30.656Z,18.10
2017-07-27T07:38:00.093Z,18.00
2017-07-27T07:40:29.731Z,18.00
2017-07-27T07:42:59.176Z,17.90
2017-07-27T07:45:29.919Z,17.90
2017-07-27T07:47:59.338Z,17.80
2017-07-27T07:50:28.810Z,17.80
2017-07-27T07:52:59.209Z,17.70
2017-07-27T07:55:28.390Z,17.60
2017-07-27T07:57:57.452Z,17.60
2017-07-27T08:00:27.214Z,17.50
2017-07-27T08:02:58.016Z,17.50
2017-07-27T08:05:27.559Z,17.50
2017-07-27T08:07:57.764Z,17.40
2017-07-27T08:10:27.355Z,17.40
2017-07-27T08:12:56.715Z,17.30
2017-07-27T08:15:26.334Z,17.30
2017-07-27T08:17:55.700Z,17.20
2017-07-27T08:20:25.922Z,17.20
2017-07-27T08:22:55.388Z,17.20
2017-07-27T08:25:25.262Z,17.20
2017-07-27T08:27:54.796Z,17.10
2017-07-27T08:30:24.186Z,17.10
2017-07-27T08:32:53.385Z,17.00
2017-07-27T08:35:22.937Z,17.00
2017-07-27T08:37:52.246Z,17.00
2017-07-27T08:40:27.781Z,16.80
2017-07-27T08:42:58.048Z,16.80
2017-07-27T08:45:27.436Z,16.70
2017-07-27T08:47:56.746Z,16.60
2017-07-27T08:50:26.344Z,16.60
2017-07-27T08:52:55.963Z,16.50
2017-07-27T08:55:25.699Z,16.50
2017-07-27T08:57:55.129Z,16.50
2017-07-27T09:00:24.731Z,16.40
2017-07-27T09:02:54.189Z,16.50
2017-07-27T09:05:24.782Z,16.50
2017-07-27T09:07:54.246Z,16.50
2017-07-27T09:10:23.779Z,16.40
2017-07-27T09:12:53.258Z,16.40
2017-07-27T09:15:22.834Z,16.40
2017-07-27T09:17:52.225Z,16.30
2017-07-27T09:20:21.724Z,16.30
2017-07-27T09:22:51.005Z,16.30
2017-07-27T09:25:20.285Z,16.30
2017-07-27T09:27:49.515Z,16.20
2017-07-27T09:30:19.117Z,16.20
2017-07-27T09:32:48.622Z,16.20
2017-07-27T09:35:17.777Z,16.20
2017-07-27T09:37:47.115Z,16.20
2017-07-27T09:40:16.448Z,16.20
2017-07-27T09:42:46.855Z,16.10
2017-07-27T09:45:16.342Z,16.10
2017-07-27T09:47:45.704Z,16.10
2017-07-27T09:50:15.381Z,16.10
2017-07-27T09:52:44.800Z,16.00
2017-07-27T09:55:15.193Z,16.00
2017-07-27T09:57:50.062Z,16.00
2017-07-27T10:00:19.461Z,16.00
2017-07-27T10:02:49.750Z,16.00
2017-07-27T10:05:19.014Z,16.00
2017-07-27T10:07:49.228Z,15.90
2017-07-27T10:10:18.630Z,15.90
2017-07-27T10:12:47.862Z,15.90
2017-07-27T10:15:17.248Z,15.90
2017-07-27T10:17:46.541Z,15.90
2017-07-27T10:20:16.261Z,15.90
2017-07-27T10:22:45.712Z,15.90
2017-07-27T10:25:15.018Z,16.00
2017-07-27T10:27:44.484Z,16.00
2017-07-27T10:30:14.027Z,16.00
2017-07-27T10:32:43.440Z,16.00
2017-07-27T10:35:13.772Z,16.10
2017-07-27T10:37:43.018Z,16.10
2017-07-27T10:40:12.172Z,16.20
2017-07-27T10:42:41.576Z,16.20
2017-07-27T10:45:10.876Z,16.20
2017-07-27T10:47:40.400Z,16.10
2017-07-27T10:50:09.864Z,16.10
2017-07-27T10:52:39.167Z,16.00
2017-07-27T10:55:08.563Z,15.90
2017-07-27T10:57:38.255Z,15.90
2017-07-27T11:00:07.901Z,15.80
2017-07-27T11:02:37.459Z,15.80
2017-07-27T11:05:06.657Z,15.80
2017-07-27T11:07:36.115Z,15.70
2017-07-27T11:10:06.590Z,15.70
2017-07-27T11:12:35.910Z,15.60
2017-07-27T11:15:05.563Z,15.60
2017-07-27T11:17:35.121Z,15.60
2017-07-27T11:20:04.584Z,15.60
2017-07-27T11:22:33.983Z,15.50
2017-07-27T11:25:03.700Z,15.50
2017-07-27T11:27:32.992Z,15.50
2017-07-27T11:30:02.282Z,15.40
2017-07-27T11:32:31.585Z,15.40
2017-07-27T11:35:01.073Z,15.40
2017-07-27T11:37:30.622Z,15.40
2017-07-27T11:40:00.031Z,15.50
2017-07-27T11:42:29.452Z,15.50
2017-07-27T11:44:58.793Z,15.50
2017-07-27T11:47:28.167Z,15.50
2017-07-27T11:49:57.716Z,15.60
2017-07-27T11:52:27.185Z,15.60
2017-07-27T11:54:56.493Z,15.60
2017-07-27T11:57:26.943Z,15.70
2017-07-27T11:59:56.650Z,15.70
2017-07-27T12:02:26.166Z,15.70
2017-07-27T12:04:55.637Z,15.70
2017-07-27T12:07:25.022Z,15.80
2017-07-27T12:09:54.247Z,15.90
2017-07-27T12:12:24.877Z,15.80
2017-07-27T12:14:54.339Z,15.80
2017-07-27T12:17:23.585Z,15.70
2017-07-27T12:19:54.206Z,15.70
2017-07-27T12:22:23.593Z,15.70
2017-07-27T12:24:53.190Z,15.80
2017-07-27T12:27:22.573Z,15.80
2017-07-27T12:29:51.933Z,15.80
2017-07-27T12:32:22.336Z,15.80
2017-07-27T12:34:51.947Z,15.80
2017-07-27T12:37:21.498Z,15.90
2017-07-27T12:39:50.912Z,15.90
2017-07-27T12:42:20.415Z,15.90
2017-07-27T12:44:50.065Z,15.90
2017-07-27T12:47:19.528Z,15.90
2017-07-27T12:49:49.101Z,15.80
2017-07-27T12:52:19.134Z,15.80
2017-07-27T12:54:48.412Z,15.80
2017-07-27T12:57:17.596Z,15.90
2017-07-27T12:59:47.189Z,15.90
2017-07-27T13:02:16.707Z,15.80
2017-07-27T13:04:46.302Z,15.80
2017-07-27T13:07:15.671Z,15.80
2017-07-27T13:09:45.241Z,15.80
2017-07-27T13:12:14.778Z,15.80
2017-07-27T13:14:44.982Z,15.80
2017-07-27T13:17:14.486Z,15.80
2017-07-27T13:19:43.921Z,15.80
2017-07-27T13:22:13.280Z,15.70
2017-07-27T13:24:42.533Z,15.80
2017-07-27T13:27:11.995Z,15.80
2017-07-27T13:29:42.144Z,15.90
2017-07-27T13:32:11.531Z,15.80
2017-07-27T13:34:40.895Z,15.80
2017-07-27T13:37:10.283Z,15.90
2017-07-27T13:39:39.801Z,15.80
2017-07-27T13:42:09.016Z,15.80
2017-07-27T13:44:39.442Z,15.90
2017-07-27T13:47:09.117Z,15.90
2017-07-27T13:49:38.211Z,15.90
2017-07-27T13:52:07.569Z,15.90
2017-07-27T13:54:36.919Z,15.90
2017-07-27T13:57:06.558Z,16.00
2017-07-27T13:59:35.860Z,16.00
2017-07-27T14:02:05.215Z,16.10
2017-07-27T14:04:34.761Z,16.00
2017-07-27T14:07:04.263Z,16.00
2017-07-27T14:09:33.547Z,16.00
2017-07-27T14:12:02.896Z,16.10
2017-07-27T14:14:31.919Z,15.90
2017-07-27T14:17:02.561Z,16.00
2017-07-27T14:19:31.988Z,16.10
2017-07-27T14:22:01.376Z,16.20
2017-07-27T14:24:30.846Z,16.30
2017-07-27T14:27:00.282Z,16.30
2017-07-27T14:29:29.674Z,16.40
2017-07-27T14:31:59.296Z,16.50
2017-07-27T14:34:28.622Z,16.50
2017-07-27T14:36:58.164Z,16.50
2017-07-27T14:39:27.703Z,16.50
2017-07-27T14:41:57.393Z,16.60
2017-07-27T14:44:26.910Z,16.80
2017-07-27T14:46:56.204Z,16.70
2017-07-27T14:49:25.778Z,16.80
2017-07-27T14:51:55.177Z,16.80
2017-07-27T14:54:24.715Z,16.80
2017-07-27T14:56:54.247Z,16.90
2017-07-27T14:59:23.559Z,16.90
2017-07-27T15:01:52.770Z,16.90
2017-07-27T15:04:22.113Z,16.80
2017-07-27T15:06:51.465Z,16.70
2017-07-27T15:09:20.660Z,16.80
2017-07-27T15:11:50.044Z,17.00
2017-07-27T15:14:19.436Z,17.10
2017-07-27T15:16:49.434Z,17.20
2017-07-27T15:19:19.591Z,17.30
2017-07-27T15:21:49.321Z,17.40
2017-07-27T15:24:18.635Z,17.40
2017-07-27T15:26:49.326Z,17.50
2017-07-27T15:29:18.595Z,17.40
2017-07-27T15:31:47.796Z,17.30
2017-07-27T15:34:17.128Z,17.30
2017-07-27T15:36:46.528Z,17.40
2017-07-27T15:39:16.202Z,17.40
2017-07-27T15:41:45.709Z,17.50
2017-07-27T15:44:15.015Z,17.40
2017-07-27T15:46:44.601Z,17.40
2017-07-27T15:49:14.058Z,17.40
2017-07-27T15:51:43.534Z,17.40
2017-07-27T15:54:13.201Z,17.40
2017-07-27T15:56:42.496Z,17.50
2017-07-27T15:59:11.800Z,17.70
2017-07-27T16:01:41.249Z,17.80
2017-07-27T16:04:10.681Z,17.80
2017-07-27T16:06:40.058Z,17.90
2017-07-27T16:09:09.573Z,18.00
2017-07-27T16:11:39.199Z,18.10
2017-07-27T16:14:08.502Z,18.10
2017-07-27T16:16:38.246Z,18.20
2017-07-27T16:19:07.729Z,18.20
2017-07-27T16:21:38.696Z,18.40
2017-07-27T16:24:08.876Z,18.50
2017-07-27T16:26:38.057Z,18.50
2017-07-27T16:29:07.682Z,18.70
2017-07-27T16:31:37.148Z,18.70
2017-07-27T16:34:06.252Z,18.70
2017-07-27T16:36:35.986Z,18.60
2017-07-27T16:39:05.727Z,18.70
2017-07-27T16:41:35.115Z,18.70
2017-07-27T16:44:04.890Z,18.80
2017-07-27T16:46:34.401Z,18.70
2017-07-27T16:49:04.027Z,18.90
2017-07-27T16:51:33.683Z,18.90
2017-07-27T16:54:04.388Z,19.30
2017-07-27T16:56:34.048Z,19.30
2017-07-27T16:59:03.774Z,19.60
2017-07-27T17:01:33.343Z,19.50
2017-07-27T17:04:03.517Z,19.60
2017-07-27T17:06:33.206Z,19.60
2017-07-27T17:09:02.725Z,19.80
2017-07-27T17:11:32.326Z,20.00
2017-07-27T17:14:01.768Z,20.40
2017-07-27T17:16:31.337Z,20.40
2017-07-27T17:19:00.799Z,20.50
2017-07-27T17:21:30.344Z,20.50
2017-07-27T17:24:00.932Z,20.80
2017-07-27T17:26:30.469Z,21.30
2017-07-27T17:28:59.710Z,21.40
2017-07-27T17:31:29.272Z,21.20
2017-07-27T17:33:58.653Z,21.30
2017-07-27T17:36:27.982Z,21.50
2017-07-27T17:38:57.698Z,21.30
2017-07-27T17:41:27.429Z,21.50
2017-07-27T17:43:56.935Z,21.90
2017-07-27T17:46:26.571Z,22.10
2017-07-27T17:48:55.982Z,22.10
2017-07-27T17:51:25.102Z,22.30
2017-07-27T17:53:54.702Z,22.20
2017-07-27T17:56:24.153Z,22.40
2017-07-27T17:58:53.468Z,22.70
2017-07-27T18:01:23.946Z,22.60
2017-07-27T18:03:53.548Z,22.50
2017-07-27T18:06:22.881Z,22.40
2017-07-27T18:08:52.236Z,22.10
2017-07-27T18:11:21.801Z,22.10
2017-07-27T18:13:52.188Z,22.10
2017-07-27T18:16:23.257Z,22.30
2017-07-27T18:18:52.973Z,22.40
2017-07-27T18:21:22.841Z,22.40
2017-07-27T18:23:52.778Z,22.20
2017-07-27T18:26:25.606Z,22.20
2017-07-27T18:28:54.841Z,22.10
2017-07-27T18:31:25.443Z,22.30
2017-07-27T18:33:54.944Z,22.30
2017-07-27T18:36:24.448Z,22.30
2017-07-27T18:38:53.738Z,22.40
2017-07-27T18:41:23.599Z,22.60
2017-07-27T18:43:52.869Z,22.70
2017-07-27T18:46:22.303Z,22.90
2017-07-27T18:48:51.619Z,22.70
2017-07-27T18:51:21.016Z,22.90
2017-07-27T18:53:50.481Z,23.10
2017-07-27T18:56:20.263Z,23.00
2017-07-27T18:58:49.614Z,23.00
2017-07-27T19:01:18.981Z,23.20
2017-07-27T19:03:48.401Z,23.10
2017-07-27T19:06:17.679Z,23.40
2017-07-27T19:08:46.959Z,23.40
2017-07-27T19:11:16.430Z,24.00
2017-07-27T19:13:45.928Z,24.00
2017-07-27T19:16:15.438Z,23.80
2017-07-27T19:18:44.571Z,23.80
2017-07-27T19:21:13.814Z,24.10
2017-07-27T19:23:43.065Z,24.30
2017-07-27T19:26:12.228Z,24.30
2017-07-27T19:28:42.622Z,24.60
2017-07-27T19:31:11.334Z,24.50
2017-07-27T19:33:40.690Z,24.70
2017-07-27T19:36:10.048Z,24.60
2017-07-27T19:38:39.293Z,24.60
2017-07-27T19:41:08.468Z,24.90
2017-07-27T19:43:37.830Z,25.20
2017-07-27T19:46:07.063Z,25.30
2017-07-27T19:48:36.318Z,25.20
2017-07-27T19:51:05.655Z,26.00
2017-07-27T19:53:34.800Z,26.10
2017-07-27T19:56:04.229Z,26.80
2017-07-27T19:58:33.943Z,27.50
2017-07-27T20:01:03.344Z,27.50
2017-07-27T20:03:32.535Z,27.80
2017-07-27T20:06:01.996Z,28.10
2017-07-27T20:08:31.054Z,28.10
2017-07-27T20:11:00.424Z,27.50
2017-07-27T20:13:29.607Z,27.60
2017-07-27T20:15:58.742Z,27.20
2017-07-27T20:18:28.134Z,26.80
2017-07-27T20:20:57.525Z,26.10
2017-07-27T20:23:26.723Z,26.00
2017-07-27T20:25:55.843Z,25.60
2017-07-27T20:28:25.380Z,25.20
2017-07-27T20:30:55.979Z,24.70
2017-07-27T20:33:25.242Z,24.30
2017-07-27T20:35:54.807Z,24.20
2017-07-27T20:38:24.002Z,24.20
2017-07-27T20:40:53.242Z,24.10
2017-07-27T20:43:22.812Z,23.90
2017-07-27T20:45:51.857Z,23.70
2017-07-27T20:48:20.989Z,23.70
2017-07-27T20:50:50.199Z,23.80
2017-07-27T20:53:19.660Z,23.70
2017-07-27T20:55:49.094Z,23.50
2017-07-27T20:58:18.277Z,23.20
2017-07-27T21:00:47.555Z,23.30
2017-07-27T21:03:16.984Z,23.20
2017-07-27T21:05:46.268Z,23.20
2017-07-27T21:08:15.597Z,23.30
2017-07-27T21:10:44.899Z,23.40
2017-07-27T21:13:14.397Z,23.60
2017-07-27T21:15:43.637Z,23.30
2017-07-27T21:18:12.891Z,23.30
2017-07-27T21:20:42.235Z,23.40
2017-07-27T21:23:11.289Z,23.30
2017-07-27T21:25:40.484Z,23.60
2017-07-27T21:28:09.963Z,23.70
2017-07-27T21:30:39.284Z,23.80
2017-07-27T21:33:09.811Z,23.80
2017-07-27T21:35:39.093Z,23.90
2017-07-27T21:38:09.461Z,24.00
2017-07-27T21:40:38.570Z,23.90
2017-07-27T21:43:08.000Z,24.00
2017-07-27T21:45:38.054Z,23.80
2017-07-27T21:48:07.543Z,23.70
2017-07-27T21:50:36.666Z,23.80
2017-07-27T21:53:06.176Z,23.80
2017-07-27T21:55:35.460Z,23.70
2017-07-27T21:58:04.854Z,23.80
2017-07-27T22:00:34.239Z,23.80
2017-07-27T22:03:03.628Z,23.70
2017-07-27T22:05:32.757Z,23.60
2017-07-27T22:08:02.084Z,23.60
2017-07-27T22:10:31.741Z,23.30
2017-07-27T22:13:01.034Z,23.40
2017-07-27T22:15:30.286Z,23.40
2017-07-27T22:17:59.702Z,23.30
2017-07-27T22:20:29.163Z,23.20
2017-07-27T22:22:58.507Z,23.30
2017-07-27T22:25:27.780Z,23.60
2017-07-27T22:27:57.251Z,23.70
2017-07-27T22:30:27.387Z,23.80
2017-07-27T22:32:56.942Z,23.80
2017-07-27T22:35:26.843Z,24.00
2017-07-27T22:37:56.296Z,24.10
2017-07-27T22:40:26.401Z,24.10
2017-07-27T22:42:55.736Z,24.10
2017-07-27T22:45:25.073Z,24.20
2017-07-27T22:47:54.154Z,24.20
2017-07-27T22:50:23.319Z,24.20
2017-07-27T22:52:52.619Z,24.20
2017-07-27T22:55:22.002Z,24.10
2017-07-27T22:57:52.252Z,24.40
2017-07-27T23:00:21.273Z,24.40
2017-07-27T23:02:50.599Z,24.40
2017-07-27T23:05:19.674Z,24.60
2017-07-27T23:07:48.975Z,24.60
2017-07-27T23:10:18.581Z,24.50
2017-07-27T23:12:47.685Z,24.60
2017-07-27T23:15:17.251Z,24.60
2017-07-27T23:17:46.531Z,24.60
2017-07-27T23:20:15.824Z,24.60
2017-07-27T23:22:45.262Z,24.60
2017-07-27T23:25:14.725Z,24.70
2017-07-27T23:27:44.222Z,24.80
2017-07-27T23:30:13.508Z,24.80
2017-07-27T23:32:42.813Z,24.90
2017-07-27T23:35:12.009Z,25.10
2017-07-27T23:37:41.487Z,24.90
2017-07-27T23:40:10.901Z,24.90
2017-07-27T23:42:40.475Z,25.00
2017-07-27T23:45:09.844Z,25.00
2017-07-27T23:47:39.101Z,24.90
2017-07-27T23:50:08.568Z,25.00
2017-07-27T23:52:37.988Z,24.90
2017-07-27T23:55:06.978Z,24.90
2017-07-27T23:57:36.329Z,25.00
